sensor_id;sensor_type;location;lat;lon;timestamp;P1;durP1;ratioP1;P2;durP2;ratioP2
14584;SDS011;7379;51.506;11.876;2023-04-25T00:01:30;4.40;;;3.20;;
14584;SDS011;7379;51.506;11.876;2023-04-25T00:03:58;4.75;;;3.35;;
14584;SDS011;7379;51.506;11.876;2023-04-25T00:06:26;4.22;;;3.50;;
14584;SDS011;7379;51.506;11.876;2023-04-25T00:08:54;4.10;;;3.28;;
14584;SDS011;7379;51.506;11.876;2023-04-25T00:11:21;3.70;;;3.10;;
14584;SDS011;7379;51.506;11.876;2023-04-25T00:13:48;3.42;;;3.13;;
14584;SDS011;7379;51.506;11.876;2023-04-25T00:16:16;3.70;;;3.05;;
14584;SDS011;7379;51.506;11.876;2023-04-25T00:18:43;4.13;;;3.33;;
14584;SDS011;7379;51.506;11.876;2023-04-25T00:21:11;3.58;;;3.10;;
14584;SDS011;7379;51.506;11.876;2023-04-25T00:23:38;3.60;;;3.28;;
14584;SDS011;7379;51.506;11.876;2023-04-25T00:26:06;3.60;;;3.30;;
14584;SDS011;7379;51.506;11.876;2023-04-25T00:28:33;3.55;;;2.90;;
14584;SDS011;7379;51.506;11.876;2023-04-25T00:30:59;4.32;;;3.30;;
14584;SDS011;7379;51.506;11.876;2023-04-25T00:33:26;3.67;;;3.30;;
14584;SDS011;7379;51.506;11.876;2023-04-25T00:35:53;4.25;;;3.40;;
14584;SDS011;7379;51.506;11.876;2023-04-25T00:38:20;3.65;;;3.35;;
14584;SDS011;7379;51.506;11.876;2023-04-25T00:40:47;4.65;;;3.53;;
14584;SDS011;7379;51.506;11.876;2023-04-25T00:43:15;4.03;;;3.53;;
14584;SDS011;7379;51.506;11.876;2023-04-25T00:45:42;4.47;;;3.22;;
14584;SDS011;7379;51.506;11.876;2023-04-25T00:48:09;4.95;;;3.47;;
14584;SDS011;7379;51.506;11.876;2023-04-25T00:50:36;3.75;;;3.45;;
14584;SDS011;7379;51.506;11.876;2023-04-25T00:53:03;4.15;;;3.60;;
14584;SDS011;7379;51.506;11.876;2023-04-25T00:55:31;5.43;;;3.60;;
14584;SDS011;7379;51.506;11.876;2023-04-25T00:57:59;3.75;;;3.35;;
14584;SDS011;7379;51.506;11.876;2023-04-25T01:00:27;5.10;;;3.53;;
14584;SDS011;7379;51.506;11.876;2023-04-25T01:02:55;4.50;;;3.63;;
14584;SDS011;7379;51.506;11.876;2023-04-25T01:05:22;5.05;;;3.85;;
14584;SDS011;7379;51.506;11.876;2023-04-25T01:07:48;4.07;;;3.55;;
14584;SDS011;7379;51.506;11.876;2023-04-25T01:10:15;4.95;;;3.45;;
14584;SDS011;7379;51.506;11.876;2023-04-25T01:12:42;5.15;;;3.78;;
14584;SDS011;7379;51.506;11.876;2023-04-25T01:15:09;5.47;;;3.30;;
14584;SDS011;7379;51.506;11.876;2023-04-25T01:17:37;5.35;;;3.53;;
14584;SDS011;7379;51.506;11.876;2023-04-25T01:20:06;5.75;;;3.50;;
14584;SDS011;7379;51.506;11.876;2023-04-25T01:22:36;3.63;;;3.08;;
14584;SDS011;7379;51.506;11.876;2023-04-25T01:25:04;5.10;;;3.60;;
14584;SDS011;7379;51.506;11.876;2023-04-25T01:27:31;4.60;;;3.67;;
14584;SDS011;7379;51.506;11.876;2023-04-25T01:29:58;3.58;;;3.28;;
14584;SDS011;7379;51.506;11.876;2023-04-25T01:32:26;5.05;;;3.50;;
14584;SDS011;7379;51.506;11.876;2023-04-25T01:34:53;4.30;;;3.60;;
14584;SDS011;7379;51.506;11.876;2023-04-25T01:37:20;3.85;;;3.38;;
14584;SDS011;7379;51.506;11.876;2023-04-25T01:39:48;4.40;;;3.58;;
14584;SDS011;7379;51.506;11.876;2023-04-25T01:42:15;4.68;;;3.40;;
14584;SDS011;7379;51.506;11.876;2023-04-25T01:44:42;3.85;;;3.42;;
14584;SDS011;7379;51.506;11.876;2023-04-25T01:47:09;4.90;;;3.88;;
14584;SDS011;7379;51.506;11.876;2023-04-25T01:49:36;4.68;;;3.40;;
14584;SDS011;7379;51.506;11.876;2023-04-25T01:52:03;4.90;;;3.15;;
14584;SDS011;7379;51.506;11.876;2023-04-25T01:54:30;3.85;;;3.30;;
14584;SDS011;7379;51.506;11.876;2023-04-25T01:56:58;4.57;;;3.35;;
14584;SDS011;7379;51.506;11.876;2023-04-25T01:59:25;4.68;;;3.58;;
14584;SDS011;7379;51.506;11.876;2023-04-25T02:01:52;4.78;;;3.50;;
14584;SDS011;7379;51.506;11.876;2023-04-25T02:04:19;4.50;;;3.10;;
14584;SDS011;7379;51.506;11.876;2023-04-25T02:06:45;3.30;;;3.00;;
14584;SDS011;7379;51.506;11.876;2023-04-25T02:09:12;3.30;;;3.00;;
14584;SDS011;7379;51.506;11.876;2023-04-25T02:11:39;4.47;;;3.35;;
14584;SDS011;7379;51.506;11.876;2023-04-25T02:14:07;3.70;;;3.20;;
14584;SDS011;7379;51.506;11.876;2023-04-25T02:16:34;4.72;;;3.50;;
14584;SDS011;7379;51.506;11.876;2023-04-25T02:19:02;5.25;;;3.20;;
14584;SDS011;7379;51.506;11.876;2023-04-25T02:21:28;6.05;;;3.30;;
14584;SDS011;7379;51.506;11.876;2023-04-25T02:23:55;6.75;;;3.45;;
14584;SDS011;7379;51.506;11.876;2023-04-25T02:26:22;5.60;;;3.28;;
14584;SDS011;7379;51.506;11.876;2023-04-25T02:28:50;5.22;;;3.25;;
14584;SDS011;7379;51.506;11.876;2023-04-25T02:31:18;3.42;;;2.90;;
14584;SDS011;7379;51.506;11.876;2023-04-25T02:33:45;5.45;;;3.50;;
14584;SDS011;7379;51.506;11.876;2023-04-25T02:36:11;4.72;;;3.20;;
14584;SDS011;7379;51.506;11.876;2023-04-25T02:38:38;3.97;;;3.55;;
14584;SDS011;7379;51.506;11.876;2023-04-25T02:41:05;3.50;;;2.95;;
14584;SDS011;7379;51.506;11.876;2023-04-25T02:43:32;4.68;;;3.33;;
14584;SDS011;7379;51.506;11.876;2023-04-25T02:45:59;4.95;;;3.40;;
14584;SDS011;7379;51.506;11.876;2023-04-25T02:48:27;4.50;;;3.13;;
14584;SDS011;7379;51.506;11.876;2023-04-25T02:50:54;4.28;;;3.08;;
14584;SDS011;7379;51.506;11.876;2023-04-25T02:53:21;5.93;;;3.00;;
14584;SDS011;7379;51.506;11.876;2023-04-25T02:55:48;5.57;;;3.42;;
14584;SDS011;7379;51.506;11.876;2023-04-25T02:58:14;4.25;;;3.08;;
14584;SDS011;7379;51.506;11.876;2023-04-25T03:00:42;6.15;;;3.10;;
14584;SDS011;7379;51.506;11.876;2023-04-25T03:03:08;4.32;;;3.10;;
14584;SDS011;7379;51.506;11.876;2023-04-25T03:05:36;6.13;;;3.17;;
14584;SDS011;7379;51.506;11.876;2023-04-25T03:08:03;4.43;;;3.00;;
14584;SDS011;7379;51.506;11.876;2023-04-25T03:10:30;6.00;;;3.60;;
14584;SDS011;7379;51.506;11.876;2023-04-25T03:12:57;4.60;;;2.92;;
14584;SDS011;7379;51.506;11.876;2023-04-25T03:15:24;4.50;;;3.00;;
14584;SDS011;7379;51.506;11.876;2023-04-25T03:17:50;4.38;;;3.00;;
14584;SDS011;7379;51.506;11.876;2023-04-25T03:20:17;4.47;;;3.05;;
14584;SDS011;7379;51.506;11.876;2023-04-25T03:22:45;5.07;;;3.17;;
14584;SDS011;7379;51.506;11.876;2023-04-25T03:25:12;4.90;;;3.08;;
14584;SDS011;7379;51.506;11.876;2023-04-25T03:27:39;6.40;;;3.10;;
14584;SDS011;7379;51.506;11.876;2023-04-25T03:30:06;3.95;;;3.20;;
14584;SDS011;7379;51.506;11.876;2023-04-25T03:32:33;5.53;;;3.53;;
14584;SDS011;7379;51.506;11.876;2023-04-25T03:35:00;5.18;;;3.10;;
14584;SDS011;7379;51.506;11.876;2023-04-25T03:37:28;5.40;;;3.10;;
14584;SDS011;7379;51.506;11.876;2023-04-25T03:39:56;6.15;;;3.13;;
14584;SDS011;7379;51.506;11.876;2023-04-25T03:42:23;5.20;;;3.40;;
14584;SDS011;7379;51.506;11.876;2023-04-25T03:44:50;5.28;;;3.17;;
14584;SDS011;7379;51.506;11.876;2023-04-25T03:47:17;5.00;;;3.42;;
14584;SDS011;7379;51.506;11.876;2023-04-25T03:49:44;5.78;;;3.38;;
14584;SDS011;7379;51.506;11.876;2023-04-25T03:52:11;5.13;;;3.25;;
14584;SDS011;7379;51.506;11.876;2023-04-25T03:54:38;5.18;;;3.53;;
14584;SDS011;7379;51.506;11.876;2023-04-25T03:57:06;5.47;;;3.35;;
14584;SDS011;7379;51.506;11.876;2023-04-25T03:59:33;5.75;;;3.50;;
14584;SDS011;7379;51.506;11.876;2023-04-25T04:01:59;6.68;;;3.50;;
14584;SDS011;7379;51.506;11.876;2023-04-25T04:04:26;6.25;;;3.55;;
14584;SDS011;7379;51.506;11.876;2023-04-25T04:06:53;7.97;;;3.63;;
14584;SDS011;7379;51.506;11.876;2023-04-25T04:09:20;4.97;;;3.33;;
14584;SDS011;7379;51.506;11.876;2023-04-25T04:11:47;6.05;;;3.30;;
14584;SDS011;7379;51.506;11.876;2023-04-25T04:14:15;7.22;;;3.75;;
14584;SDS011;7379;51.506;11.876;2023-04-25T04:16:42;5.88;;;3.20;;
14584;SDS011;7379;51.506;11.876;2023-04-25T04:19:08;7.50;;;3.88;;
14584;SDS011;7379;51.506;11.876;2023-04-25T04:21:35;7.00;;;3.42;;
14584;SDS011;7379;51.506;11.876;2023-04-25T04:24:02;6.70;;;3.58;;
14584;SDS011;7379;51.506;11.876;2023-04-25T04:26:31;6.30;;;3.45;;
14584;SDS011;7379;51.506;11.876;2023-04-25T04:28:59;8.38;;;4.05;;
14584;SDS011;7379;51.506;11.876;2023-04-25T04:31:27;9.30;;;4.00;;
14584;SDS011;7379;51.506;11.876;2023-04-25T04:33:55;6.93;;;4.10;;
14584;SDS011;7379;51.506;11.876;2023-04-25T04:36:22;7.15;;;3.60;;
14584;SDS011;7379;51.506;11.876;2023-04-25T04:38:51;6.60;;;3.92;;
14584;SDS011;7379;51.506;11.876;2023-04-25T04:41:19;7.32;;;3.97;;
14584;SDS011;7379;51.506;11.876;2023-04-25T04:43:45;6.05;;;3.85;;
14584;SDS011;7379;51.506;11.876;2023-04-25T04:46:12;6.05;;;3.60;;
14584;SDS011;7379;51.506;11.876;2023-04-25T04:48:41;7.80;;;3.78;;
14584;SDS011;7379;51.506;11.876;2023-04-25T04:51:07;5.53;;;3.80;;
14584;SDS011;7379;51.506;11.876;2023-04-25T04:53:34;7.20;;;3.78;;
14584;SDS011;7379;51.506;11.876;2023-04-25T04:56:01;6.10;;;4.07;;
14584;SDS011;7379;51.506;11.876;2023-04-25T04:58:28;13.48;;;4.55;;
14584;SDS011;7379;51.506;11.876;2023-04-25T05:00:55;7.43;;;3.95;;
14584;SDS011;7379;51.506;11.876;2023-04-25T05:03:22;6.93;;;3.90;;
14584;SDS011;7379;51.506;11.876;2023-04-25T05:05:51;7.28;;;3.97;;
14584;SDS011;7379;51.506;11.876;2023-04-25T05:08:17;7.57;;;4.07;;
14584;SDS011;7379;51.506;11.876;2023-04-25T05:10:44;8.60;;;4.10;;
14584;SDS011;7379;51.506;11.876;2023-04-25T05:13:11;6.63;;;4.00;;
14584;SDS011;7379;51.506;11.876;2023-04-25T05:15:38;7.65;;;4.63;;
14584;SDS011;7379;51.506;11.876;2023-04-25T05:18:05;7.03;;;4.13;;
14584;SDS011;7379;51.506;11.876;2023-04-25T05:20:31;7.45;;;4.10;;
14584;SDS011;7379;51.506;11.876;2023-04-25T05:22:59;8.32;;;4.20;;
14584;SDS011;7379;51.506;11.876;2023-04-25T05:25:26;6.90;;;3.92;;
14584;SDS011;7379;51.506;11.876;2023-04-25T05:27:53;6.72;;;4.28;;
14584;SDS011;7379;51.506;11.876;2023-04-25T05:30:20;7.90;;;4.38;;
14584;SDS011;7379;51.506;11.876;2023-04-25T05:32:47;7.68;;;4.75;;
14584;SDS011;7379;51.506;11.876;2023-04-25T05:35:13;8.25;;;4.35;;
14584;SDS011;7379;51.506;11.876;2023-04-25T05:37:40;7.10;;;4.00;;
14584;SDS011;7379;51.506;11.876;2023-04-25T05:40:09;7.07;;;4.60;;
14584;SDS011;7379;51.506;11.876;2023-04-25T05:42:36;6.00;;;4.32;;
14584;SDS011;7379;51.506;11.876;2023-04-25T05:45:03;7.10;;;4.50;;
14584;SDS011;7379;51.506;11.876;2023-04-25T05:47:31;6.93;;;4.18;;
14584;SDS011;7379;51.506;11.876;2023-04-25T05:49:58;8.00;;;4.78;;
14584;SDS011;7379;51.506;11.876;2023-04-25T05:52:24;5.60;;;4.35;;
14584;SDS011;7379;51.506;11.876;2023-04-25T05:54:51;6.78;;;4.50;;
14584;SDS011;7379;51.506;11.876;2023-04-25T05:57:20;5.72;;;4.07;;
14584;SDS011;7379;51.506;11.876;2023-04-25T05:59:48;6.45;;;4.20;;
14584;SDS011;7379;51.506;11.876;2023-04-25T06:02:15;6.30;;;4.32;;
14584;SDS011;7379;51.506;11.876;2023-04-25T06:04:42;8.60;;;4.72;;
14584;SDS011;7379;51.506;11.876;2023-04-25T06:07:09;5.40;;;4.50;;
14584;SDS011;7379;51.506;11.876;2023-04-25T06:09:36;7.53;;;4.40;;
14584;SDS011;7379;51.506;11.876;2023-04-25T06:12:04;7.18;;;4.60;;
14584;SDS011;7379;51.506;11.876;2023-04-25T06:14:32;6.45;;;4.45;;
14584;SDS011;7379;51.506;11.876;2023-04-25T06:16:59;5.78;;;4.40;;
14584;SDS011;7379;51.506;11.876;2023-04-25T06:19:31;5.75;;;4.47;;
14584;SDS011;7379;51.506;11.876;2023-04-25T06:21:58;6.07;;;4.47;;
14584;SDS011;7379;51.506;11.876;2023-04-25T06:24:25;6.70;;;4.65;;
14584;SDS011;7379;51.506;11.876;2023-04-25T06:26:51;6.18;;;4.55;;
14584;SDS011;7379;51.506;11.876;2023-04-25T06:29:18;10.48;;;4.90;;
14584;SDS011;7379;51.506;11.876;2023-04-25T06:31:47;4.72;;;4.22;;
14584;SDS011;7379;51.506;11.876;2023-04-25T06:34:13;7.30;;;4.57;;
14584;SDS011;7379;51.506;11.876;2023-04-25T06:36:41;7.25;;;5.00;;
14584;SDS011;7379;51.506;11.876;2023-04-25T06:39:09;7.82;;;4.60;;
14584;SDS011;7379;51.506;11.876;2023-04-25T06:41:36;8.57;;;5.03;;
14584;SDS011;7379;51.506;11.876;2023-04-25T06:44:02;7.60;;;5.00;;
14584;SDS011;7379;51.506;11.876;2023-04-25T06:46:29;6.82;;;4.95;;
14584;SDS011;7379;51.506;11.876;2023-04-25T06:48:57;7.57;;;5.53;;
14584;SDS011;7379;51.506;11.876;2023-04-25T06:51:24;8.18;;;5.65;;
14584;SDS011;7379;51.506;11.876;2023-04-25T06:53:54;5.10;;;4.50;;
14584;SDS011;7379;51.506;11.876;2023-04-25T06:56:21;7.68;;;5.30;;
14584;SDS011;7379;51.506;11.876;2023-04-25T06:58:48;7.20;;;4.60;;
14584;SDS011;7379;51.506;11.876;2023-04-25T07:01:15;7.40;;;4.60;;
14584;SDS011;7379;51.506;11.876;2023-04-25T07:03:41;13.40;;;3.63;;
14584;SDS011;7379;51.506;11.876;2023-04-25T07:06:10;5.68;;;3.80;;
14584;SDS011;7379;51.506;11.876;2023-04-25T07:08:36;5.63;;;3.50;;
14584;SDS011;7379;51.506;11.876;2023-04-25T07:11:03;6.97;;;3.40;;
14584;SDS011;7379;51.506;11.876;2023-04-25T07:13:30;5.53;;;3.58;;
14584;SDS011;7379;51.506;11.876;2023-04-25T07:15:57;7.75;;;3.03;;
14584;SDS011;7379;51.506;11.876;2023-04-25T07:18:24;5.47;;;2.75;;
14584;SDS011;7379;51.506;11.876;2023-04-25T07:20:51;5.03;;;2.92;;
14584;SDS011;7379;51.506;11.876;2023-04-25T07:23:19;7.38;;;3.00;;
14584;SDS011;7379;51.506;11.876;2023-04-25T07:25:46;7.47;;;3.13;;
14584;SDS011;7379;51.506;11.876;2023-04-25T07:28:13;9.50;;;3.40;;
14584;SDS011;7379;51.506;11.876;2023-04-25T07:30:40;4.95;;;2.88;;
14584;SDS011;7379;51.506;11.876;2023-04-25T07:33:07;5.63;;;2.88;;
14584;SDS011;7379;51.506;11.876;2023-04-25T07:35:33;8.00;;;3.08;;
14584;SDS011;7379;51.506;11.876;2023-04-25T07:38:01;8.30;;;3.00;;
14584;SDS011;7379;51.506;11.876;2023-04-25T07:40:29;7.05;;;3.05;;
14584;SDS011;7379;51.506;11.876;2023-04-25T07:42:56;7.43;;;3.10;;
14584;SDS011;7379;51.506;11.876;2023-04-25T07:45:23;8.38;;;3.50;;
14584;SDS011;7379;51.506;11.876;2023-04-25T07:47:49;6.60;;;2.95;;
14584;SDS011;7379;51.506;11.876;2023-04-25T07:50:16;8.30;;;3.30;;
14584;SDS011;7379;51.506;11.876;2023-04-25T07:52:43;6.60;;;3.00;;
14584;SDS011;7379;51.506;11.876;2023-04-25T07:55:10;6.97;;;3.33;;
14584;SDS011;7379;51.506;11.876;2023-04-25T07:57:38;6.85;;;3.05;;
14584;SDS011;7379;51.506;11.876;2023-04-25T08:00:05;8.05;;;3.08;;
14584;SDS011;7379;51.506;11.876;2023-04-25T08:02:34;6.97;;;2.95;;
14584;SDS011;7379;51.506;11.876;2023-04-25T08:05:01;6.88;;;3.15;;
14584;SDS011;7379;51.506;11.876;2023-04-25T08:07:28;6.95;;;3.58;;
14584;SDS011;7379;51.506;11.876;2023-04-25T08:09:55;12.05;;;2.95;;
14584;SDS011;7379;51.506;11.876;2023-04-25T08:12:21;9.23;;;3.65;;
14584;SDS011;7379;51.506;11.876;2023-04-25T08:14:50;9.23;;;3.10;;
14584;SDS011;7379;51.506;11.876;2023-04-25T08:17:16;8.10;;;3.60;;
14584;SDS011;7379;51.506;11.876;2023-04-25T08:19:43;10.13;;;3.38;;
14584;SDS011;7379;51.506;11.876;2023-04-25T08:22:10;8.70;;;3.30;;
14584;SDS011;7379;51.506;11.876;2023-04-25T08:24:37;9.13;;;3.30;;
14584;SDS011;7379;51.506;11.876;2023-04-25T08:27:04;9.80;;;3.72;;
14584;SDS011;7379;51.506;11.876;2023-04-25T08:29:31;10.40;;;3.40;;
14584;SDS011;7379;51.506;11.876;2023-04-25T08:32:00;12.23;;;4.05;;
14584;SDS011;7379;51.506;11.876;2023-04-25T08:34:26;10.50;;;3.25;;
14584;SDS011;7379;51.506;11.876;2023-04-25T08:36:54;9.30;;;3.67;;
14584;SDS011;7379;51.506;11.876;2023-04-25T08:39:21;10.52;;;4.13;;
14584;SDS011;7379;51.506;11.876;2023-04-25T08:41:48;9.27;;;3.75;;
14584;SDS011;7379;51.506;11.876;2023-04-25T08:44:15;10.65;;;3.35;;
14584;SDS011;7379;51.506;11.876;2023-04-25T08:46:42;11.13;;;3.70;;
14584;SDS011;7379;51.506;11.876;2023-04-25T08:49:16;10.80;;;4.57;;
14584;SDS011;7379;51.506;11.876;2023-04-25T08:51:44;8.43;;;3.90;;
14584;SDS011;7379;51.506;11.876;2023-04-25T08:54:13;8.07;;;3.80;;
14584;SDS011;7379;51.506;11.876;2023-04-25T08:56:41;8.23;;;4.10;;
14584;SDS011;7379;51.506;11.876;2023-04-25T08:59:11;11.45;;;4.50;;
14584;SDS011;7379;51.506;11.876;2023-04-25T09:01:38;8.93;;;4.07;;
14584;SDS011;7379;51.506;11.876;2023-04-25T09:04:06;10.75;;;4.05;;
14584;SDS011;7379;51.506;11.876;2023-04-25T09:06:34;12.27;;;4.50;;
14584;SDS011;7379;51.506;11.876;2023-04-25T09:09:02;9.38;;;4.22;;
14584;SDS011;7379;51.506;11.876;2023-04-25T09:11:30;12.52;;;4.38;;
14584;SDS011;7379;51.506;11.876;2023-04-25T09:14:09;8.82;;;4.15;;
14584;SDS011;7379;51.506;11.876;2023-04-25T09:19:29;9.55;;;4.45;;
14584;SDS011;7379;51.506;11.876;2023-04-25T09:22:00;10.25;;;4.60;;
14584;SDS011;7379;51.506;11.876;2023-04-25T09:24:34;9.63;;;4.72;;
14584;SDS011;7379;51.506;11.876;2023-04-25T09:27:03;11.32;;;4.53;;
14584;SDS011;7379;51.506;11.876;2023-04-25T09:29:31;10.63;;;4.38;;
14584;SDS011;7379;51.506;11.876;2023-04-25T09:32:11;11.30;;;4.78;;
14584;SDS011;7379;51.506;11.876;2023-04-25T09:34:43;9.90;;;4.65;;
14584;SDS011;7379;51.506;11.876;2023-04-25T09:37:16;9.70;;;4.50;;
14584;SDS011;7379;51.506;11.876;2023-04-25T09:39:44;12.35;;;4.72;;
14584;SDS011;7379;51.506;11.876;2023-04-25T09:42:12;7.40;;;4.13;;
14584;SDS011;7379;51.506;11.876;2023-04-25T09:44:41;11.48;;;4.65;;
14584;SDS011;7379;51.506;11.876;2023-04-25T09:47:10;8.02;;;4.57;;
14584;SDS011;7379;51.506;11.876;2023-04-25T09:49:39;9.90;;;4.78;;
14584;SDS011;7379;51.506;11.876;2023-04-25T09:52:07;8.65;;;4.15;;
14584;SDS011;7379;51.506;11.876;2023-04-25T09:54:36;8.75;;;4.22;;
14584;SDS011;7379;51.506;11.876;2023-04-25T09:57:04;10.55;;;4.82;;
14584;SDS011;7379;51.506;11.876;2023-04-25T09:59:38;7.40;;;4.00;;
14584;SDS011;7379;51.506;11.876;2023-04-25T10:02:08;9.75;;;4.25;;
14584;SDS011;7379;51.506;11.876;2023-04-25T10:04:36;10.57;;;4.80;;
14584;SDS011;7379;51.506;11.876;2023-04-25T10:07:05;8.60;;;4.32;;
14584;SDS011;7379;51.506;11.876;2023-04-25T10:09:33;10.10;;;4.18;;
14584;SDS011;7379;51.506;11.876;2023-04-25T10:12:05;7.65;;;4.15;;
14584;SDS011;7379;51.506;11.876;2023-04-25T10:14:33;10.57;;;4.13;;
14584;SDS011;7379;51.506;11.876;2023-04-25T10:17:00;8.05;;;3.80;;
14584;SDS011;7379;51.506;11.876;2023-04-25T10:19:27;9.05;;;4.05;;
14584;SDS011;7379;51.506;11.876;2023-04-25T10:21:55;8.88;;;4.30;;
14584;SDS011;7379;51.506;11.876;2023-04-25T10:24:29;8.77;;;4.07;;
14584;SDS011;7379;51.506;11.876;2023-04-25T10:26:57;8.75;;;4.15;;
14584;SDS011;7379;51.506;11.876;2023-04-25T10:29:25;10.40;;;3.97;;
14584;SDS011;7379;51.506;11.876;2023-04-25T10:31:52;9.43;;;4.30;;
14584;SDS011;7379;51.506;11.876;2023-04-25T10:34:19;9.55;;;4.10;;
14584;SDS011;7379;51.506;11.876;2023-04-25T10:36:51;8.85;;;3.90;;
14584;SDS011;7379;51.506;11.876;2023-04-25T10:39:22;7.60;;;4.10;;
14584;SDS011;7379;51.506;11.876;2023-04-25T10:45:14;8.38;;;3.45;;
14584;SDS011;7379;51.506;11.876;2023-04-25T10:47:43;6.88;;;3.55;;
14584;SDS011;7379;51.506;11.876;2023-04-25T10:50:10;6.72;;;3.33;;
14584;SDS011;7379;51.506;11.876;2023-04-25T10:52:40;7.35;;;3.53;;
14584;SDS011;7379;51.506;11.876;2023-04-25T10:55:07;7.40;;;3.20;;
14584;SDS011;7379;51.506;11.876;2023-04-25T10:57:38;10.05;;;3.30;;
14584;SDS011;7379;51.506;11.876;2023-04-25T11:00:11;9.18;;;3.17;;
14584;SDS011;7379;51.506;11.876;2023-04-25T11:02:45;8.93;;;3.40;;
14584;SDS011;7379;51.506;11.876;2023-04-25T11:05:20;7.25;;;3.17;;
14584;SDS011;7379;51.506;11.876;2023-04-25T11:07:49;8.93;;;3.17;;
14584;SDS011;7379;51.506;11.876;2023-04-25T11:10:18;7.72;;;3.55;;
14584;SDS011;7379;51.506;11.876;2023-04-25T11:12:45;9.50;;;3.60;;
14584;SDS011;7379;51.506;11.876;2023-04-25T11:15:20;11.50;;;3.30;;
14584;SDS011;7379;51.506;11.876;2023-04-25T11:17:48;6.75;;;3.20;;
14584;SDS011;7379;51.506;11.876;2023-04-25T11:20:17;7.90;;;3.08;;
14584;SDS011;7379;51.506;11.876;2023-04-25T11:22:44;6.53;;;3.42;;
14584;SDS011;7379;51.506;11.876;2023-04-25T11:25:13;9.23;;;3.03;;
14584;SDS011;7379;51.506;11.876;2023-04-25T11:27:50;10.18;;;2.95;;
14584;SDS011;7379;51.506;11.876;2023-04-25T11:30:18;7.47;;;2.97;;
14584;SDS011;7379;51.506;11.876;2023-04-25T11:32:47;7.13;;;3.38;;
14584;SDS011;7379;51.506;11.876;2023-04-25T11:35:15;7.45;;;2.90;;
14584;SDS011;7379;51.506;11.876;2023-04-25T11:37:42;8.32;;;2.95;;
14584;SDS011;7379;51.506;11.876;2023-04-25T11:40:10;9.95;;;3.28;;
14584;SDS011;7379;51.506;11.876;2023-04-25T11:42:37;6.10;;;2.83;;
14584;SDS011;7379;51.506;11.876;2023-04-25T11:45:05;8.65;;;3.35;;
14584;SDS011;7379;51.506;11.876;2023-04-25T11:47:33;7.80;;;2.78;;
14584;SDS011;7379;51.506;11.876;2023-04-25T11:50:01;7.63;;;3.08;;
14584;SDS011;7379;51.506;11.876;2023-04-25T11:52:39;7.45;;;2.90;;
14584;SDS011;7379;51.506;11.876;2023-04-25T11:55:07;8.07;;;2.80;;
14584;SDS011;7379;51.506;11.876;2023-04-25T11:57:35;7.65;;;2.95;;
14584;SDS011;7379;51.506;11.876;2023-04-25T12:00:07;7.93;;;2.90;;
14584;SDS011;7379;51.506;11.876;2023-04-25T12:02:37;8.80;;;2.50;;
14584;SDS011;7379;51.506;11.876;2023-04-25T12:05:07;8.70;;;3.30;;
14584;SDS011;7379;51.506;11.876;2023-04-25T12:07:34;7.60;;;2.90;;
14584;SDS011;7379;51.506;11.876;2023-04-25T12:10:06;6.03;;;2.58;;
14584;SDS011;7379;51.506;11.876;2023-04-25T12:12:34;6.38;;;2.67;;
14584;SDS011;7379;51.506;11.876;2023-04-25T12:15:08;4.78;;;2.50;;
14584;SDS011;7379;51.506;11.876;2023-04-25T12:17:40;6.22;;;2.70;;
14584;SDS011;7379;51.506;11.876;2023-04-25T12:20:10;4.22;;;2.72;;
14584;SDS011;7379;51.506;11.876;2023-04-25T12:22:40;6.90;;;2.40;;
14584;SDS011;7379;51.506;11.876;2023-04-25T12:25:10;5.30;;;2.60;;
14584;SDS011;7379;51.506;11.876;2023-04-25T12:27:38;6.03;;;2.65;;
14584;SDS011;7379;51.506;11.876;2023-04-25T12:30:07;5.88;;;2.40;;
14584;SDS011;7379;51.506;11.876;2023-04-25T12:32:35;5.07;;;2.65;;
14584;SDS011;7379;51.506;11.876;2023-04-25T12:35:03;5.30;;;2.50;;
14584;SDS011;7379;51.506;11.876;2023-04-25T12:37:31;4.22;;;2.60;;
14584;SDS011;7379;51.506;11.876;2023-04-25T12:39:58;4.93;;;2.28;;
14584;SDS011;7379;51.506;11.876;2023-04-25T12:42:25;4.95;;;2.63;;
14584;SDS011;7379;51.506;11.876;2023-04-25T12:44:52;5.05;;;2.50;;
14584;SDS011;7379;51.506;11.876;2023-04-25T12:47:18;5.10;;;2.47;;
14584;SDS011;7379;51.506;11.876;2023-04-25T12:49:45;5.00;;;2.42;;
14584;SDS011;7379;51.506;11.876;2023-04-25T12:52:13;5.60;;;2.30;;
14584;SDS011;7379;51.506;11.876;2023-04-25T12:54:41;6.20;;;2.65;;
14584;SDS011;7379;51.506;11.876;2023-04-25T12:57:08;5.60;;;2.50;;
14584;SDS011;7379;51.506;11.876;2023-04-25T12:59:36;4.15;;;2.58;;
14584;SDS011;7379;51.506;11.876;2023-04-25T13:02:03;6.43;;;2.50;;
14584;SDS011;7379;51.506;11.876;2023-04-25T13:04:29;4.15;;;2.42;;
14584;SDS011;7379;51.506;11.876;2023-04-25T13:06:56;4.35;;;2.72;;
14584;SDS011;7379;51.506;11.876;2023-04-25T13:09:23;5.20;;;2.38;;
14584;SDS011;7379;51.506;11.876;2023-04-25T13:11:51;4.18;;;2.50;;
14584;SDS011;7379;51.506;11.876;2023-04-25T13:14:18;6.18;;;2.60;;
14584;SDS011;7379;51.506;11.876;2023-04-25T13:16:45;5.07;;;2.45;;
14584;SDS011;7379;51.506;11.876;2023-04-25T13:19:12;5.68;;;2.25;;
14584;SDS011;7379;51.506;11.876;2023-04-25T13:21:38;4.18;;;2.13;;
14584;SDS011;7379;51.506;11.876;2023-04-25T13:24:05;7.18;;;2.40;;
14584;SDS011;7379;51.506;11.876;2023-04-25T13:26:32;4.93;;;2.58;;
14584;SDS011;7379;51.506;11.876;2023-04-25T13:29:01;4.88;;;2.17;;
14584;SDS011;7379;51.506;11.876;2023-04-25T13:31:28;6.78;;;2.50;;
14584;SDS011;7379;51.506;11.876;2023-04-25T13:33:55;4.78;;;2.30;;
14584;SDS011;7379;51.506;11.876;2023-04-25T13:36:22;5.40;;;2.53;;
14584;SDS011;7379;51.506;11.876;2023-04-25T13:38:50;4.32;;;2.13;;
14584;SDS011;7379;51.506;11.876;2023-04-25T13:41:17;5.18;;;2.53;;
14584;SDS011;7379;51.506;11.876;2023-04-25T13:43:45;5.97;;;2.70;;
14584;SDS011;7379;51.506;11.876;2023-04-25T13:46:14;5.85;;;2.50;;
14584;SDS011;7379;51.506;11.876;2023-04-25T13:48:41;4.65;;;2.42;;
14584;SDS011;7379;51.506;11.876;2023-04-25T13:51:12;6.20;;;2.40;;
14584;SDS011;7379;51.506;11.876;2023-04-25T13:53:39;4.78;;;2.33;;
14584;SDS011;7379;51.506;11.876;2023-04-25T13:56:06;5.22;;;2.38;;
14584;SDS011;7379;51.506;11.876;2023-04-25T13:58:33;4.82;;;2.42;;
14584;SDS011;7379;51.506;11.876;2023-04-25T14:01:00;4.03;;;2.40;;
14584;SDS011;7379;51.506;11.876;2023-04-25T14:03:29;4.55;;;2.50;;
14584;SDS011;7379;51.506;11.876;2023-04-25T14:05:56;5.32;;;2.40;;
14584;SDS011;7379;51.506;11.876;2023-04-25T14:08:23;6.13;;;2.20;;
14584;SDS011;7379;51.506;11.876;2023-04-25T14:10:50;5.13;;;2.47;;
14584;SDS011;7379;51.506;11.876;2023-04-25T14:13:17;5.00;;;2.55;;
14584;SDS011;7379;51.506;11.876;2023-04-25T14:15:44;4.30;;;2.60;;
14584;SDS011;7379;51.506;11.876;2023-04-25T14:18:11;3.92;;;2.35;;
14584;SDS011;7379;51.506;11.876;2023-04-25T14:20:39;3.67;;;2.25;;
14584;SDS011;7379;51.506;11.876;2023-04-25T14:23:06;4.85;;;2.55;;
14584;SDS011;7379;51.506;11.876;2023-04-25T14:25:33;7.93;;;2.53;;
14584;SDS011;7379;51.506;11.876;2023-04-25T14:28:00;7.72;;;2.63;;
14584;SDS011;7379;51.506;11.876;2023-04-25T14:30:27;4.78;;;2.40;;
14584;SDS011;7379;51.506;11.876;2023-04-25T14:32:54;4.65;;;2.60;;
14584;SDS011;7379;51.506;11.876;2023-04-25T14:35:21;6.97;;;2.60;;
14584;SDS011;7379;51.506;11.876;2023-04-25T14:37:49;4.78;;;2.38;;
14584;SDS011;7379;51.506;11.876;2023-04-25T14:40:16;4.80;;;2.20;;
14584;SDS011;7379;51.506;11.876;2023-04-25T14:42:42;6.22;;;2.38;;
14584;SDS011;7379;51.506;11.876;2023-04-25T14:45:10;4.10;;;2.45;;
14584;SDS011;7379;51.506;11.876;2023-04-25T14:47:37;5.60;;;2.50;;
14584;SDS011;7379;51.506;11.876;2023-04-25T14:50:05;5.40;;;2.58;;
14584;SDS011;7379;51.506;11.876;2023-04-25T14:52:33;4.50;;;2.35;;
14584;SDS011;7379;51.506;11.876;2023-04-25T14:55:01;8.15;;;2.47;;